createdAt,value
2022-12-14T00:01:40.315Z,8.23
2022-12-14T00:04:06.912Z,8.24
2022-12-14T00:06:34.076Z,8.21
2022-12-14T00:09:04.203Z,8.20
2022-12-14T00:11:32.535Z,8.18
2022-12-14T00:14:00.867Z,8.14
2022-12-14T00:16:30.486Z,8.11
2022-12-14T00:18:59.012Z,8.08
2022-12-14T00:21:26.409Z,8.07
2022-12-14T00:23:53.885Z,8.06
2022-12-14T00:26:28.532Z,8.05
2022-12-14T00:28:55.801Z,8.01
2022-12-14T00:31:23.467Z,7.98
2022-12-14T00:33:50.521Z,7.98
2022-12-14T00:36:17.283Z,7.97
2022-12-14T00:38:43.862Z,7.97
2022-12-14T00:41:10.832Z,7.98
2022-12-14T00:43:37.619Z,7.96
2022-12-14T00:46:04.304Z,7.96
2022-12-14T00:48:31.636Z,7.96
2022-12-14T00:50:58.900Z,7.98
2022-12-14T00:53:25.627Z,7.98
2022-12-14T00:55:52.284Z,7.95
2022-12-14T00:58:21.006Z,7.92
2022-12-14T01:00:48.405Z,7.89
2022-12-14T01:03:15.333Z,7.90
2022-12-14T01:05:41.978Z,7.91
2022-12-14T01:08:15.887Z,7.91
2022-12-14T01:10:42.450Z,7.91
2022-12-14T01:13:10.972Z,7.92
2022-12-14T01:15:37.660Z,7.92
2022-12-14T01:18:04.201Z,7.92
2022-12-14T01:20:30.779Z,7.91
2022-12-14T01:22:57.453Z,7.90
2022-12-14T01:25:24.049Z,7.90
2022-12-14T01:27:50.547Z,7.91
2022-12-14T01:30:19.334Z,7.89
2022-12-14T01:32:46.791Z,7.89
2022-12-14T01:35:13.358Z,7.90
2022-12-14T01:37:39.863Z,7.91
2022-12-14T01:40:06.901Z,7.87
2022-12-14T01:42:36.066Z,7.84
2022-12-14T01:45:03.127Z,7.85
2022-12-14T01:47:41.949Z,7.86
2022-12-14T01:50:21.617Z,7.89
2022-12-14T01:52:49.705Z,7.90
2022-12-14T01:55:16.146Z,7.92
2022-12-14T01:57:46.301Z,7.92
2022-12-14T02:00:14.029Z,7.90
2022-12-14T02:02:56.032Z,7.87
2022-12-14T02:05:23.743Z,7.86
2022-12-14T02:07:51.965Z,7.84
2022-12-14T02:10:19.597Z,7.84
2022-12-14T02:12:50.319Z,7.85
2022-12-14T02:15:17.247Z,7.84
2022-12-14T02:17:45.438Z,7.85
2022-12-14T02:20:13.448Z,7.85
2022-12-14T02:23:06.733Z,7.86
2022-12-14T02:26:15.039Z,7.87
2022-12-14T02:29:00.165Z,7.76
2022-12-14T02:31:53.983Z,7.61
2022-12-14T02:34:47.180Z,7.42
2022-12-14T02:37:13.656Z,7.28
2022-12-14T02:40:05.209Z,7.27
2022-12-14T02:42:53.862Z,7.30
2022-12-14T02:45:26.689Z,7.40
2022-12-14T02:48:13.032Z,7.41
2022-12-14T02:50:42.500Z,7.44
2022-12-14T02:53:30.734Z,7.42
2022-12-14T02:56:04.422Z,7.41
2022-12-14T02:58:40.563Z,7.40
2022-12-14T03:01:13.796Z,7.41
2022-12-14T03:03:41.292Z,7.38
2022-12-14T03:06:14.932Z,7.40
2022-12-14T03:08:44.205Z,7.39
2022-12-14T03:11:14.830Z,7.42
2022-12-14T03:13:46.220Z,7.43
2022-12-14T03:16:20.784Z,7.41
2022-12-14T03:18:55.165Z,7.41
2022-12-14T03:21:26.424Z,7.40
2022-12-14T03:23:53.204Z,7.38
2022-12-14T03:26:28.205Z,7.40
2022-12-14T03:28:58.324Z,7.45
2022-12-14T03:31:39.030Z,7.49
2022-12-14T03:34:13.361Z,7.51
2022-12-14T03:36:47.560Z,7.54
2022-12-14T03:39:18.920Z,7.57
2022-12-14T03:41:52.062Z,7.58
2022-12-14T03:44:26.491Z,7.59
2022-12-14T03:47:15.991Z,7.49
2022-12-14T03:49:42.433Z,7.42
2022-12-14T03:52:15.967Z,7.38
2022-12-14T03:55:01.462Z,7.41
2022-12-14T03:57:48.062Z,7.47
2022-12-14T04:00:18.994Z,7.51
2022-12-14T04:02:51.646Z,7.46
2022-12-14T04:05:48.725Z,7.41
2022-12-14T04:08:34.522Z,7.40
2022-12-14T04:11:22.254Z,7.41
2022-12-14T04:14:35.679Z,7.45
2022-12-14T04:17:24.265Z,7.42
2022-12-14T04:20:01.920Z,7.40
2022-12-14T04:22:30.940Z,7.41
2022-12-14T04:25:20.123Z,7.42
2022-12-14T04:27:57.266Z,7.43
2022-12-14T04:30:23.882Z,7.42
2022-12-14T04:32:57.248Z,7.30
2022-12-14T04:35:28.295Z,7.19
2022-12-14T04:37:59.928Z,7.14
2022-12-14T04:40:33.434Z,7.17
2022-12-14T04:43:05.190Z,7.21
2022-12-14T04:45:34.993Z,7.20
2022-12-14T04:48:13.266Z,7.24
2022-12-14T04:50:43.990Z,7.28
2022-12-14T04:53:13.950Z,7.29
2022-12-14T04:55:54.468Z,7.31
2022-12-14T04:58:29.133Z,7.29
2022-12-14T05:01:01.646Z,7.30
2022-12-14T05:03:31.484Z,7.32
2022-12-14T05:06:17.229Z,7.32
2022-12-14T05:08:46.882Z,7.34
2022-12-14T05:11:51.921Z,7.35
2022-12-14T05:14:29.904Z,7.36
2022-12-14T05:16:56.991Z,7.34
2022-12-14T05:19:26.563Z,7.36
2022-12-14T05:21:54.420Z,7.43
2022-12-14T05:24:20.925Z,7.44
2022-12-14T05:26:47.569Z,7.33
2022-12-14T05:29:15.105Z,7.17
2022-12-14T05:31:41.786Z,7.09
2022-12-14T05:34:15.595Z,7.03
2022-12-14T05:36:42.077Z,7.01
2022-12-14T05:39:08.602Z,7.04
2022-12-14T05:41:35.175Z,7.10
2022-12-14T05:44:01.768Z,7.10
2022-12-14T05:46:28.358Z,7.13
2022-12-14T05:48:55.023Z,7.12
2022-12-14T05:51:21.667Z,7.13
2022-12-14T05:53:48.276Z,7.15
2022-12-14T05:56:14.848Z,7.19
2022-12-14T05:58:41.631Z,7.22
2022-12-14T06:01:17.015Z,7.22
2022-12-14T06:03:45.614Z,7.22
2022-12-14T06:06:12.858Z,7.22
2022-12-14T06:08:44.723Z,7.24
2022-12-14T06:11:18.802Z,7.26
2022-12-14T06:13:45.575Z,7.26
2022-12-14T06:16:24.414Z,7.26
2022-12-14T06:18:56.108Z,7.36
2022-12-14T06:21:30.673Z,7.44
2022-12-14T06:23:57.702Z,7.69
2022-12-14T06:26:24.839Z,8.05
2022-12-14T06:28:51.338Z,8.07
2022-12-14T06:31:20.582Z,8.00
2022-12-14T06:33:47.170Z,7.99
2022-12-14T06:36:28.384Z,7.99
2022-12-14T06:38:55.736Z,8.00
2022-12-14T06:41:23.916Z,8.05
2022-12-14T06:43:52.033Z,8.09
2022-12-14T06:46:20.797Z,8.17
2022-12-14T06:48:51.998Z,8.22
2022-12-14T06:51:19.237Z,8.20
2022-12-14T06:53:46.421Z,8.20
2022-12-14T06:56:15.473Z,8.26
2022-12-14T06:58:42.570Z,8.32
2022-12-14T07:01:13.436Z,8.35
2022-12-14T07:03:43.396Z,8.38
2022-12-14T07:06:10.386Z,8.39
2022-12-14T07:08:38.349Z,8.40
2022-12-14T07:11:10.623Z,8.39
2022-12-14T07:13:37.429Z,8.38
2022-12-14T07:16:05.159Z,8.35
2022-12-14T07:18:32.447Z,8.32
2022-12-14T07:21:00.639Z,8.33
2022-12-14T07:23:29.715Z,8.39
2022-12-14T07:26:18.010Z,8.40
2022-12-14T07:28:45.731Z,8.44
2022-12-14T07:31:18.279Z,8.48
2022-12-14T07:33:44.917Z,8.50
2022-12-14T07:36:19.242Z,8.53
2022-12-14T07:38:48.326Z,8.53
2022-12-14T07:41:24.790Z,8.54
2022-12-14T07:43:52.299Z,8.55
2022-12-14T09:58:31.373Z,9.42
2022-12-14T10:01:20.506Z,9.49
2022-12-14T10:04:09.144Z,9.53
2022-12-14T10:06:53.447Z,9.59
2022-12-14T10:09:44.861Z,9.62
2022-12-14T10:12:21.497Z,9.64
2022-12-14T10:15:06.457Z,9.68
2022-12-14T10:17:42.042Z,9.71
2022-12-14T10:20:43.670Z,9.77
2022-12-14T10:23:19.473Z,9.81
2022-12-14T10:25:53.059Z,9.86
2022-12-14T10:28:30.792Z,9.89
2022-12-14T10:30:59.369Z,9.95
2022-12-14T10:33:30.185Z,10.04
2022-12-14T10:36:19.144Z,10.10
2022-12-14T10:38:56.198Z,10.13
2022-12-14T10:41:42.411Z,10.11
2022-12-14T10:45:09.619Z,10.06
2022-12-14T10:47:43.188Z,10.00
2022-12-14T10:50:21.975Z,10.05
2022-12-14T10:52:52.390Z,10.07
2022-12-14T10:55:32.134Z,10.12
2022-12-14T10:57:58.680Z,10.19
2022-12-14T11:00:25.275Z,10.25
2022-12-14T11:02:54.943Z,10.29
2022-12-14T11:05:36.738Z,10.25
2022-12-14T11:08:04.665Z,10.22
2022-12-14T11:10:52.403Z,10.16
2022-12-14T11:13:20.935Z,10.12
2022-12-14T11:15:49.600Z,10.10
2022-12-14T11:18:16.141Z,10.05
2022-12-14T11:20:59.738Z,10.04
2022-12-14T11:23:42.667Z,10.09
2022-12-14T11:26:13.182Z,10.16
2022-12-14T11:28:50.480Z,10.24
2022-12-14T11:31:20.256Z,10.29
2022-12-14T11:33:50.127Z,10.32
2022-12-14T11:36:26.113Z,10.32
2022-12-14T11:39:01.495Z,10.30
2022-12-14T11:41:34.722Z,10.30
2022-12-14T11:44:23.391Z,10.32
2022-12-14T11:46:59.053Z,10.33
2022-12-14T11:49:39.307Z,10.36
2022-12-14T11:52:05.841Z,10.41
2022-12-14T11:54:34.037Z,10.43
2022-12-14T11:57:21.114Z,10.42
2022-12-14T11:59:59.151Z,10.41
2022-12-14T12:02:30.367Z,10.47
2022-12-14T12:05:07.640Z,10.60
2022-12-14T12:07:36.690Z,10.62
2022-12-14T12:10:06.901Z,10.59
2022-12-14T12:12:35.665Z,10.55
2022-12-14T12:15:02.796Z,10.56
2022-12-14T12:17:44.395Z,10.62
2022-12-14T12:20:50.397Z,10.64
2022-12-14T12:23:21.798Z,10.69
2022-12-14T12:25:50.182Z,10.70
2022-12-14T12:28:30.015Z,10.70
2022-12-14T12:31:03.866Z,10.68
2022-12-14T12:33:41.768Z,10.67
2022-12-14T12:36:09.206Z,10.65
2022-12-14T12:38:55.412Z,10.63
2022-12-14T12:41:41.475Z,10.65
2022-12-14T12:44:19.725Z,10.68
2022-12-14T12:47:32.335Z,10.70
2022-12-14T12:50:29.929Z,10.74
2022-12-14T12:53:04.043Z,10.79
2022-12-14T12:55:49.975Z,10.80
2022-12-14T12:58:21.375Z,10.81
2022-12-14T13:00:51.555Z,10.82
2022-12-14T13:03:37.413Z,10.84
2022-12-14T13:06:25.481Z,10.86
2022-12-14T13:08:58.298Z,10.83
2022-12-14T13:11:31.771Z,10.83
2022-12-14T13:14:03.717Z,10.84
2022-12-14T13:16:34.942Z,10.87
2022-12-14T13:19:32.437Z,10.91
2022-12-14T13:21:59.230Z,10.91
2022-12-14T13:24:30.139Z,10.91
2022-12-14T13:27:24.490Z,10.95
2022-12-14T13:29:58.458Z,10.93
2022-12-14T13:32:37.428Z,10.98
2022-12-14T13:35:17.999Z,11.00
2022-12-14T13:38:12.996Z,10.97
2022-12-14T13:40:48.736Z,10.89
2022-12-14T13:43:49.279Z,10.84
2022-12-14T13:46:27.056Z,10.81
2022-12-14T13:48:56.165Z,10.75
2022-12-14T13:51:36.240Z,10.71
2022-12-14T13:54:05.939Z,10.68
2022-12-14T13:56:36.732Z,10.65
2022-12-14T13:59:06.182Z,10.50
2022-12-14T14:01:47.980Z,10.30
2022-12-14T14:04:18.493Z,10.12
2022-12-14T14:06:46.907Z,10.00
2022-12-14T14:09:28.690Z,9.86
2022-12-14T14:12:24.777Z,9.80
2022-12-14T14:14:56.230Z,9.73
2022-12-14T14:17:37.386Z,9.68
2022-12-14T14:20:26.963Z,9.64
2022-12-14T14:23:18.357Z,9.62
2022-12-14T14:26:10.209Z,9.59
2022-12-14T14:28:38.060Z,9.62
2022-12-14T14:31:05.147Z,9.72
2022-12-14T14:33:50.684Z,9.81
2022-12-14T14:36:30.943Z,9.84
2022-12-14T14:39:54.130Z,9.88
2022-12-14T14:42:07.151Z,9.93
2022-12-14T14:44:40.708Z,9.95
2022-12-14T14:47:18.650Z,9.98
2022-12-14T14:49:51.569Z,9.88
2022-12-14T14:52:40.199Z,9.79
2022-12-14T14:58:23.728Z,9.57
2022-12-14T15:00:58.580Z,9.51
2022-12-14T15:03:31.020Z,9.46
2022-12-14T15:05:57.994Z,9.44
2022-12-14T15:08:40.961Z,9.45
2022-12-14T15:11:19.817Z,9.43
2022-12-14T15:14:01.987Z,9.42
2022-12-14T15:16:42.038Z,9.41
2022-12-14T15:19:21.778Z,9.40
2022-12-14T15:21:57.731Z,9.38
2022-12-14T15:24:25.365Z,9.36
2022-12-14T15:26:52.048Z,9.32
2022-12-14T15:29:22.978Z,9.31
2022-12-14T15:31:59.663Z,9.28
2022-12-14T15:34:28.991Z,9.27
2022-12-14T15:36:56.126Z,9.27
2022-12-14T15:39:38.304Z,9.26
2022-12-14T15:42:12.836Z,9.22
2022-12-14T15:44:43.774Z,9.18
2022-12-14T15:47:30.964Z,9.17
2022-12-14T15:50:29.725Z,9.24
2022-12-14T15:53:00.182Z,9.32
2022-12-14T15:55:38.473Z,9.33
2022-12-14T15:58:34.606Z,9.38
2022-12-14T16:01:22.906Z,9.43
2022-12-14T16:03:53.014Z,9.48
2022-12-14T16:06:20.395Z,9.50
2022-12-14T16:09:23.271Z,9.53
2022-12-14T16:11:53.591Z,9.56
2022-12-14T16:14:28.185Z,9.54
2022-12-14T16:16:55.194Z,9.55
2022-12-14T16:19:28.370Z,9.53
2022-12-14T16:22:24.036Z,9.53
2022-12-14T16:25:01.508Z,9.47
2022-12-14T16:27:29.294Z,9.37
2022-12-14T16:30:17.218Z,9.27
2022-12-14T16:32:49.827Z,9.20
2022-12-14T16:35:25.299Z,9.16
2022-12-14T16:37:54.592Z,9.16
2022-12-14T16:40:34.805Z,9.17
2022-12-14T16:43:02.377Z,9.13
2022-12-14T16:45:45.202Z,9.11
2022-12-14T16:48:17.467Z,9.00
2022-12-14T16:51:06.511Z,8.87
2022-12-14T16:53:30.903Z,8.77
2022-12-14T16:56:06.991Z,8.74
2022-12-14T16:58:34.569Z,8.81
2022-12-14T17:01:03.473Z,8.82
2022-12-14T17:03:31.810Z,8.79
2022-12-14T17:06:04.162Z,8.77
2022-12-14T17:08:31.050Z,8.74
2022-12-14T17:10:57.807Z,8.71
2022-12-14T17:13:27.723Z,8.68
2022-12-14T17:15:59.539Z,8.66
2022-12-14T17:18:30.487Z,8.61
2022-12-14T17:20:57.160Z,8.59
2022-12-14T17:23:24.122Z,8.57
2022-12-14T17:25:50.894Z,8.65
2022-12-14T17:28:17.473Z,8.71
2022-12-14T17:30:44.052Z,8.73
2022-12-14T17:33:10.723Z,8.70
2022-12-14T17:35:37.267Z,8.71
2022-12-14T17:38:10.191Z,8.67
2022-12-14T17:40:37.260Z,8.65
2022-12-14T17:43:03.792Z,8.68
2022-12-14T17:45:31.468Z,8.78
2022-12-14T17:47:58.191Z,8.93
2022-12-14T17:50:27.562Z,9.05
2022-12-14T17:52:54.215Z,9.13
2022-12-14T17:55:27.260Z,9.18
2022-12-14T17:57:54.780Z,9.21
2022-12-14T18:00:43.082Z,9.19
2022-12-14T18:03:11.039Z,9.18
2022-12-14T18:05:43.446Z,9.21
2022-12-14T18:08:15.728Z,9.28
2022-12-14T18:10:42.286Z,9.36
2022-12-14T18:13:11.063Z,9.42
2022-12-14T18:15:40.351Z,9.46
2022-12-14T18:18:07.395Z,9.48
2022-12-14T18:20:34.579Z,9.51
2022-12-14T18:23:01.489Z,9.54
2022-12-14T18:25:34.764Z,9.54
2022-12-14T18:28:04.293Z,9.58
2022-12-14T18:30:38.663Z,9.60
2022-12-14T18:33:10.386Z,9.63
2022-12-14T18:35:37.224Z,9.64
2022-12-14T18:38:03.952Z,9.64
2022-12-14T18:40:32.535Z,9.60
2022-12-14T18:42:59.135Z,9.52
2022-12-14T18:45:28.136Z,9.49
2022-12-14T18:47:54.800Z,9.50
2022-12-14T18:50:21.975Z,9.50
2022-12-14T18:52:48.835Z,9.46
2022-12-14T18:55:16.921Z,9.43
2022-12-14T18:57:47.588Z,9.42
2022-12-14T19:00:16.494Z,9.43
2022-12-14T19:02:43.820Z,9.43
2022-12-14T19:05:11.022Z,9.45
2022-12-14T19:07:37.616Z,9.47
2022-12-14T19:10:04.581Z,9.47
2022-12-14T19:12:31.129Z,9.46
2022-12-14T19:14:57.651Z,9.45
2022-12-14T19:17:24.193Z,9.44
2022-12-14T19:19:50.883Z,9.40
2022-12-14T19:22:17.981Z,9.41
2022-12-14T19:24:47.779Z,9.42
2022-12-14T19:27:36.349Z,9.43
2022-12-14T19:30:07.239Z,9.45
2022-12-14T19:32:34.025Z,9.46
2022-12-14T19:35:00.551Z,9.48
2022-12-14T19:37:27.077Z,9.51
2022-12-14T19:39:54.016Z,9.52
2022-12-14T19:42:20.890Z,9.55
2022-12-14T19:44:47.674Z,9.55
2022-12-14T19:47:16.141Z,9.54
2022-12-14T19:49:42.678Z,9.52
2022-12-14T19:52:09.244Z,9.51
2022-12-14T19:54:36.118Z,9.51
2022-12-14T19:57:03.144Z,9.48
2022-12-14T19:59:29.712Z,9.43
2022-12-14T20:01:56.514Z,9.41
2022-12-14T20:04:23.389Z,9.39
2022-12-14T20:06:50.103Z,9.46
2022-12-14T20:09:17.637Z,9.52
2022-12-14T20:11:44.658Z,9.57
2022-12-14T20:14:12.218Z,9.58
2022-12-14T20:16:39.230Z,9.57
2022-12-14T20:19:06.335Z,9.55
2022-12-14T20:21:34.167Z,9.52
2022-12-14T20:24:01.728Z,9.50
2022-12-14T20:26:29.239Z,9.39
2022-12-14T20:28:58.765Z,9.10
2022-12-14T20:31:26.090Z,8.89
2022-12-14T20:33:53.155Z,8.81
2022-12-14T20:36:19.764Z,8.72
2022-12-14T20:38:46.506Z,8.65
2022-12-14T20:41:17.214Z,8.63
2022-12-14T20:43:44.673Z,8.61
2022-12-14T20:46:31.639Z,8.60
2022-12-14T20:49:01.679Z,8.56
2022-12-14T20:51:30.165Z,8.54
2022-12-14T20:53:57.155Z,8.52
2022-12-14T20:56:23.939Z,8.50
2022-12-14T20:58:51.039Z,8.48
2022-12-14T21:01:18.697Z,8.46
2022-12-14T21:03:48.449Z,8.45
2022-12-14T21:06:20.140Z,8.43
2022-12-14T21:09:01.953Z,8.42
2022-12-14T21:11:48.180Z,8.41
2022-12-14T21:14:15.128Z,8.38
2022-12-14T21:16:42.777Z,8.37
2022-12-14T21:19:12.123Z,8.32
2022-12-14T21:21:39.747Z,8.30
2022-12-14T21:24:09.502Z,8.30
2022-12-14T21:26:37.786Z,8.28
2022-12-14T21:29:05.094Z,8.26
2022-12-14T21:31:31.935Z,8.24
2022-12-14T21:33:58.485Z,8.23
2022-12-14T21:36:25.037Z,8.26
2022-12-14T21:38:53.214Z,8.29
2022-12-14T21:41:38.520Z,8.30
2022-12-14T21:44:05.499Z,8.29
2022-12-14T21:46:32.067Z,8.30
2022-12-14T21:48:59.577Z,8.31
2022-12-14T21:51:26.154Z,8.33
2022-12-14T21:54:01.161Z,8.36
2022-12-14T21:56:47.517Z,8.39
2022-12-14T21:59:16.199Z,8.41
2022-12-14T22:01:42.995Z,8.41
2022-12-14T22:04:09.647Z,8.40
2022-12-14T22:06:36.109Z,8.37
2022-12-14T22:09:04.141Z,8.35
2022-12-14T22:11:30.939Z,8.32
2022-12-14T22:13:57.783Z,8.30
2022-12-14T22:16:24.652Z,8.30
2022-12-14T22:18:51.291Z,8.28
2022-12-14T22:21:17.795Z,8.26
2022-12-14T22:23:44.436Z,8.28
2022-12-14T22:26:11.204Z,8.30
2022-12-14T22:28:38.046Z,8.31
2022-12-14T22:31:04.832Z,8.32
2022-12-14T22:33:31.847Z,8.36
2022-12-14T22:35:58.642Z,8.35
2022-12-14T22:38:26.243Z,8.38
2022-12-14T22:40:53.076Z,8.44
2022-12-14T22:43:28.161Z,8.46
2022-12-14T22:45:56.532Z,8.48
2022-12-14T22:48:23.015Z,8.47
2022-12-14T22:50:49.571Z,8.48
2022-12-14T22:53:16.072Z,8.51
2022-12-14T22:55:44.757Z,8.51
2022-12-14T22:58:16.852Z,8.47
2022-12-14T23:00:43.508Z,8.47
2022-12-14T23:03:11.865Z,8.48
2022-12-14T23:05:39.052Z,8.51
2022-12-14T23:08:05.811Z,8.54
2022-12-14T23:10:50.934Z,8.60
2022-12-14T23:13:35.853Z,8.61
2022-12-14T23:16:21.106Z,8.53
2022-12-14T23:19:06.399Z,8.43
2022-12-14T23:21:51.490Z,8.32
2022-12-14T23:24:36.334Z,8.26
2022-12-14T23:27:21.734Z,8.21
2022-12-14T23:30:06.655Z,8.17
2022-12-14T23:32:51.612Z,8.14
2022-12-14T23:35:36.431Z,8.11
2022-12-14T23:38:23.274Z,8.09
2022-12-14T23:41:08.054Z,8.09
2022-12-14T23:43:53.082Z,8.08
2022-12-14T23:46:38.337Z,8.09
2022-12-14T23:49:23.737Z,8.09
2022-12-14T23:52:09.018Z,8.08
2022-12-14T23:54:53.809Z,8.10
2022-12-14T23:57:38.617Z,8.10
